Terminal Aerodrome Forecast
Issued by NWS

Home | Current Version | Previous Version | Text Only | Print | Product List | Glossary On
Versions: 1 2 3 4 5 6 7 8 9 10 11 12 13 14 15 16 17 18 19 20 21 22
000
FTUS45 KBOU 172329
TAFBJC
TAF
KBJC 172329Z 1800/1824 12006KT P6SM FEW100 SCT220
     FM180200 25012KT P6SM SCT220
     FM180500 30006KT P6SM FEW220
     FM181400 VRB05KT P6SM FEW140 FEW220
     FM182100 25014KT P6SM FEW140 SCT220=

USA.gov is the U.S. government's official web portal to all federal, state and local government web resources and services.